createdAt,value
2018-09-06T00:00:19.105Z,962.88
2018-09-06T00:01:19.105Z,962.84
2018-09-06T00:02:19.126Z,962.84
2018-09-06T00:03:19.106Z,962.84
2018-09-06T00:04:19.113Z,962.81
2018-09-06T00:05:19.109Z,962.82
2018-09-06T00:06:19.111Z,962.81
2018-09-06T00:07:19.106Z,962.79
2018-09-06T00:08:19.110Z,962.76
2018-09-06T00:09:19.108Z,962.78
2018-09-06T00:10:19.112Z,962.77
2018-09-06T00:11:19.113Z,962.76
2018-09-06T00:12:19.111Z,962.72
2018-09-06T00:13:19.109Z,962.72
2018-09-06T00:14:19.111Z,962.73
2018-09-06T00:15:19.109Z,962.74
2018-09-06T00:16:19.112Z,962.72
2018-09-06T00:17:19.113Z,962.71
2018-09-06T00:18:19.112Z,962.74
2018-09-06T00:19:19.114Z,962.74
2018-09-06T00:20:19.116Z,962.74
2018-09-06T00:21:19.113Z,962.72
2018-09-06T00:22:19.114Z,962.71
2018-09-06T00:23:19.114Z,962.71
2018-09-06T00:24:19.117Z,962.67
2018-09-06T00:25:19.121Z,962.68
2018-09-06T00:26:19.117Z,962.67
2018-09-06T00:27:19.116Z,962.64
2018-09-06T00:28:19.121Z,962.66
2018-09-06T00:29:19.119Z,962.68
2018-09-06T00:30:19.122Z,962.65
2018-09-06T00:31:19.119Z,962.64
2018-09-06T00:32:19.121Z,962.62
2018-09-06T00:33:19.121Z,962.64
2018-09-06T00:34:19.120Z,962.62
2018-09-06T00:35:19.121Z,962.57
2018-09-06T00:36:19.121Z,962.62
2018-09-06T00:37:19.121Z,962.59
2018-09-06T00:38:19.121Z,962.60
2018-09-06T00:39:19.124Z,962.59
2018-09-06T00:40:19.122Z,962.59
2018-09-06T00:41:19.122Z,962.55
2018-09-06T00:42:19.127Z,962.57
2018-09-06T00:43:19.122Z,962.53
2018-09-06T00:44:19.126Z,962.56
2018-09-06T00:45:19.124Z,962.56
2018-09-06T00:46:19.122Z,962.54
2018-09-06T00:47:19.124Z,962.49
2018-09-06T00:48:19.129Z,962.54
2018-09-06T00:49:19.125Z,962.52
2018-09-06T00:50:19.128Z,962.52
2018-09-06T00:51:19.123Z,962.53
2018-09-06T00:52:19.127Z,962.50
2018-09-06T00:53:19.125Z,962.48
2018-09-06T00:54:19.128Z,962.49
2018-09-06T00:55:19.125Z,962.46
2018-09-06T00:56:19.126Z,962.49
2018-09-06T00:57:19.126Z,962.44
2018-09-06T00:58:19.126Z,962.45
2018-09-06T00:59:19.127Z,962.42
2018-09-06T01:00:19.128Z,962.40
2018-09-06T01:01:19.128Z,962.38
2018-09-06T01:02:19.126Z,962.38
2018-09-06T01:03:19.128Z,962.34
2018-09-06T01:04:19.130Z,962.34
2018-09-06T01:05:19.126Z,962.38
2018-09-06T01:06:19.128Z,962.36
2018-09-06T01:07:19.126Z,962.35
2018-09-06T01:08:19.128Z,962.34
2018-09-06T01:09:19.128Z,962.35
2018-09-06T01:10:19.127Z,962.33
2018-09-06T01:11:19.129Z,962.36
2018-09-06T01:12:19.132Z,962.32
2018-09-06T01:13:19.129Z,962.28
2018-09-06T01:14:19.130Z,962.31
2018-09-06T01:15:19.130Z,962.27
2018-09-06T01:16:19.185Z,962.26
2018-09-06T01:17:19.137Z,962.31
2018-09-06T01:18:19.128Z,962.21
2018-09-06T01:19:19.138Z,962.20
2018-09-06T01:20:19.130Z,962.21
2018-09-06T01:21:19.136Z,962.23
2018-09-06T01:22:19.129Z,962.19
2018-09-06T01:23:19.131Z,962.18
2018-09-06T01:24:19.131Z,962.19
2018-09-06T01:25:19.134Z,962.15
2018-09-06T01:26:19.129Z,962.15
2018-09-06T01:27:19.130Z,962.10
2018-09-06T01:28:19.131Z,962.15
2018-09-06T01:29:19.134Z,962.09
2018-09-06T01:30:19.129Z,962.10
2018-09-06T01:31:19.132Z,962.10
2018-09-06T01:32:19.136Z,962.09
2018-09-06T01:33:19.136Z,962.03
2018-09-06T01:34:19.128Z,962.10
2018-09-06T01:35:19.133Z,962.11
2018-09-06T01:36:19.133Z,962.08
2018-09-06T01:37:19.135Z,962.10
2018-09-06T01:38:19.170Z,962.09
2018-09-06T01:39:19.134Z,962.11
2018-09-06T01:40:19.133Z,962.09
2018-09-06T01:41:19.136Z,962.06
2018-09-06T01:42:19.135Z,962.04
2018-09-06T01:43:19.134Z,962.02
2018-09-06T01:44:19.132Z,962.01
2018-09-06T01:45:19.137Z,962.01
2018-09-06T01:46:19.132Z,961.97
2018-09-06T01:47:19.132Z,961.95
2018-09-06T01:48:19.134Z,961.98
2018-09-06T01:49:19.133Z,961.99
2018-09-06T01:50:19.132Z,961.94
2018-09-06T01:51:19.130Z,961.94
2018-09-06T01:52:19.137Z,961.95
2018-09-06T01:53:19.131Z,961.96
2018-09-06T01:54:19.134Z,961.97
2018-09-06T01:55:19.130Z,961.93
2018-09-06T01:56:19.130Z,961.94
2018-09-06T01:57:19.135Z,961.94
2018-09-06T01:58:19.130Z,961.95
2018-09-06T01:59:19.129Z,961.94
2018-09-06T02:00:19.140Z,961.92
2018-09-06T02:01:19.133Z,961.94
2018-09-06T02:02:19.130Z,961.90
2018-09-06T02:03:19.133Z,961.92
2018-09-06T02:04:19.128Z,961.91
2018-09-06T02:05:19.144Z,961.89
2018-09-06T02:06:25.501Z,961.88
2018-09-06T02:07:25.404Z,961.93
2018-09-06T02:08:25.387Z,961.94
2018-09-06T02:09:25.393Z,961.91
2018-09-06T02:10:25.387Z,961.89
2018-09-06T02:11:25.388Z,961.88
2018-09-06T02:12:25.448Z,961.89
2018-09-06T02:13:25.391Z,961.86
2018-09-06T02:14:25.456Z,961.89
2018-09-06T02:15:25.387Z,961.86
2018-09-06T02:16:25.513Z,961.88
2018-09-06T02:17:25.389Z,961.84
2018-09-06T02:18:25.590Z,961.84
2018-09-06T02:19:25.384Z,961.85
2018-09-06T02:20:25.386Z,961.85
2018-09-06T02:21:25.396Z,961.84
2018-09-06T02:22:25.385Z,961.81
2018-09-06T02:23:25.388Z,961.83
2018-09-06T02:24:25.436Z,961.78
2018-09-06T02:25:25.387Z,961.79
2018-09-06T02:26:25.388Z,961.79
2018-09-06T02:27:25.385Z,961.75
2018-09-06T02:28:25.389Z,961.76
2018-09-06T02:29:25.384Z,961.76
2018-09-06T02:30:25.383Z,961.82
2018-09-06T02:31:25.409Z,961.79
2018-09-06T02:32:25.384Z,961.75
2018-09-06T02:33:25.381Z,961.79
2018-09-06T02:34:25.385Z,961.76
2018-09-06T02:35:25.382Z,961.75
2018-09-06T02:36:25.381Z,961.74
2018-09-06T02:37:25.384Z,961.73
2018-09-06T02:38:25.390Z,961.72
2018-09-06T02:39:25.382Z,961.74
2018-09-06T02:40:25.407Z,961.74
2018-09-06T02:41:25.382Z,961.67
2018-09-06T02:42:25.408Z,961.68
2018-09-06T02:43:25.379Z,961.68
2018-09-06T02:44:25.412Z,961.66
2018-09-06T02:45:25.383Z,961.65
2018-09-06T02:46:25.383Z,961.63
2018-09-06T02:47:25.380Z,961.65
2018-09-06T02:48:25.379Z,961.61
2018-09-06T02:49:25.383Z,961.64
2018-09-06T02:50:25.377Z,961.60
2018-09-06T02:51:25.382Z,961.60
2018-09-06T02:52:25.378Z,961.62
2018-09-06T02:53:25.385Z,961.60
2018-09-06T02:54:25.397Z,961.55
2018-09-06T02:55:25.376Z,961.61
2018-09-06T02:56:25.378Z,961.57
2018-09-06T02:57:25.379Z,961.61
2018-09-06T02:58:25.374Z,961.57
2018-09-06T02:59:25.408Z,961.56
2018-09-06T03:00:25.375Z,961.61
2018-09-06T03:01:25.388Z,961.54
2018-09-06T03:02:25.375Z,961.58
2018-09-06T03:03:25.381Z,961.60
2018-09-06T03:04:25.376Z,961.54
2018-09-06T03:05:25.371Z,961.54
2018-09-06T03:06:25.377Z,961.56
2018-09-06T03:07:25.385Z,961.53
2018-09-06T03:08:25.389Z,961.52
2018-09-06T03:09:25.379Z,961.48
2018-09-06T03:10:25.375Z,961.51
2018-09-06T03:11:25.372Z,961.49
2018-09-06T03:12:25.371Z,961.44
2018-09-06T03:13:25.372Z,961.50
2018-09-06T03:14:25.371Z,961.49
2018-09-06T03:15:25.437Z,961.45
2018-09-06T03:16:25.371Z,961.47
2018-09-06T03:17:25.367Z,961.47
2018-09-06T03:18:25.369Z,961.45
2018-09-06T03:19:25.382Z,961.47
2018-09-06T03:20:25.382Z,961.47
2018-09-06T03:21:25.370Z,961.47
2018-09-06T03:22:25.385Z,961.45
2018-09-06T03:23:25.390Z,961.42
2018-09-06T03:24:25.378Z,961.46
2018-09-06T03:25:25.368Z,961.45
2018-09-06T03:26:25.366Z,961.48
2018-09-06T03:27:25.365Z,961.47
2018-09-06T03:28:25.365Z,961.47
2018-09-06T03:29:25.377Z,961.46
2018-09-06T03:30:25.367Z,961.48
2018-09-06T03:31:26.965Z,961.43
2018-09-06T03:32:25.395Z,961.50
2018-09-06T03:33:25.365Z,961.42
2018-09-06T03:34:25.406Z,961.43
2018-09-06T03:35:25.362Z,961.41
2018-09-06T03:36:25.369Z,961.42
2018-09-06T03:37:25.367Z,961.44
2018-09-06T03:38:25.385Z,961.40
2018-09-06T03:39:25.377Z,961.39
2018-09-06T03:40:25.362Z,961.43
2018-09-06T03:41:25.360Z,961.43
2018-09-06T03:42:25.365Z,961.42
2018-09-06T03:43:25.358Z,961.35
2018-09-06T03:44:25.390Z,961.38
2018-09-06T03:45:25.364Z,961.36
2018-09-06T03:46:25.368Z,961.39
2018-09-06T03:47:25.361Z,961.39
2018-09-06T03:48:25.367Z,961.34
2018-09-06T03:49:25.361Z,961.35
2018-09-06T03:50:25.385Z,961.35
2018-09-06T03:51:25.361Z,961.33
2018-09-06T03:52:25.359Z,961.32
2018-09-06T03:53:25.370Z,961.32
2018-09-06T03:54:25.361Z,961.32
2018-09-06T03:55:25.362Z,961.30
2018-09-06T03:56:25.356Z,961.28
2018-09-06T03:57:25.354Z,961.28
2018-09-06T03:58:25.354Z,961.29
2018-09-06T03:59:25.353Z,961.26
2018-09-06T04:00:25.354Z,961.26
2018-09-06T04:01:25.353Z,961.25
2018-09-06T04:02:25.353Z,961.23
2018-09-06T04:03:25.351Z,961.23
2018-09-06T04:04:25.352Z,961.22
2018-09-06T04:05:25.359Z,961.25
2018-09-06T04:06:25.369Z,961.26
2018-09-06T04:07:25.355Z,961.22
2018-09-06T04:08:25.353Z,961.24
2018-09-06T04:09:25.376Z,961.23
2018-09-06T04:10:25.350Z,961.23
2018-09-06T04:11:25.347Z,961.19
2018-09-06T04:12:25.347Z,961.16
2018-09-06T04:13:25.362Z,961.17
2018-09-06T04:14:25.348Z,961.18
2018-09-06T04:15:25.348Z,961.15
2018-09-06T04:16:25.354Z,961.18
2018-09-06T04:17:25.350Z,961.17
2018-09-06T04:18:25.344Z,961.17
2018-09-06T04:19:25.347Z,961.20
2018-09-06T04:20:25.345Z,961.19
2018-09-06T04:21:25.497Z,961.13
2018-09-06T04:22:25.349Z,961.20
2018-09-06T04:23:25.394Z,961.21
2018-09-06T04:24:27.124Z,961.18
2018-09-06T04:25:25.350Z,961.17
2018-09-06T04:26:25.344Z,961.19
2018-09-06T04:27:25.345Z,961.21
2018-09-06T04:28:25.390Z,961.18
2018-09-06T04:29:25.344Z,961.17
2018-09-06T04:30:25.349Z,961.18
2018-09-06T04:31:25.346Z,961.21
2018-09-06T04:32:25.341Z,961.16
2018-09-06T04:33:25.344Z,961.16
2018-09-06T04:34:25.382Z,961.16
2018-09-06T04:35:25.382Z,961.18
2018-09-06T04:36:25.352Z,961.17
2018-09-06T04:37:25.338Z,961.15
2018-09-06T04:38:25.337Z,961.15
2018-09-06T04:39:25.336Z,961.15
2018-09-06T04:40:25.336Z,961.12
2018-09-06T04:41:25.338Z,961.11
2018-09-06T04:42:25.333Z,961.11
2018-09-06T04:43:25.332Z,961.09
2018-09-06T04:44:25.359Z,961.06
2018-09-06T04:45:25.332Z,961.09
2018-09-06T04:46:25.336Z,961.08
2018-09-06T04:47:25.335Z,961.08
2018-09-06T04:48:25.333Z,961.13
2018-09-06T04:49:25.347Z,961.10
2018-09-06T04:50:25.349Z,961.15
2018-09-06T04:51:25.364Z,961.11
2018-09-06T04:52:25.329Z,961.11
2018-09-06T04:53:25.333Z,961.13
2018-09-06T04:54:25.331Z,961.13
2018-09-06T04:55:25.423Z,961.15
2018-09-06T04:56:25.328Z,961.15
2018-09-06T04:57:25.329Z,961.17
2018-09-06T04:58:25.382Z,961.15
2018-09-06T04:59:25.329Z,961.16
2018-09-06T05:00:25.328Z,961.14
2018-09-06T05:01:25.328Z,961.20
2018-09-06T05:02:25.323Z,961.13
2018-09-06T05:03:25.326Z,961.13
2018-09-06T05:04:25.394Z,961.15
2018-09-06T05:05:25.329Z,961.14
2018-09-06T05:06:25.324Z,961.17
2018-09-06T05:07:25.326Z,961.11
2018-09-06T05:08:25.367Z,961.18
2018-09-06T05:09:25.352Z,961.13
2018-09-06T05:10:25.322Z,961.15
2018-09-06T05:11:25.324Z,961.15
2018-09-06T05:12:25.324Z,961.16
2018-09-06T05:13:25.325Z,961.12
2018-09-06T05:14:25.347Z,961.16
2018-09-06T05:15:25.366Z,961.17
2018-09-06T05:16:25.325Z,961.18
2018-09-06T05:17:25.346Z,961.17
2018-09-06T05:18:25.323Z,961.19
2018-09-06T05:19:25.316Z,961.16
2018-09-06T05:20:25.345Z,961.13
2018-09-06T05:21:25.319Z,961.15
2018-09-06T05:22:25.313Z,961.15
2018-09-06T05:23:25.315Z,961.15
2018-09-06T05:24:25.316Z,961.15
2018-09-06T05:25:25.324Z,961.18
2018-09-06T05:26:25.317Z,961.12
2018-09-06T05:27:25.319Z,961.15
2018-09-06T05:28:25.322Z,961.19
2018-09-06T05:29:25.311Z,961.17
2018-09-06T05:30:25.332Z,961.20
2018-09-06T05:31:25.313Z,961.19
2018-09-06T05:32:25.328Z,961.15
2018-09-06T05:33:25.332Z,961.19
2018-09-06T05:34:25.309Z,961.19
2018-09-06T05:35:25.312Z,961.16
2018-09-06T05:36:25.365Z,961.11
2018-09-06T05:37:25.310Z,961.13
2018-09-06T05:38:25.336Z,961.14
2018-09-06T05:39:25.308Z,961.12
2018-09-06T05:40:25.307Z,961.10
2018-09-06T05:41:25.308Z,961.11
2018-09-06T05:42:25.311Z,961.12
2018-09-06T05:43:25.312Z,961.09
2018-09-06T05:44:25.320Z,961.14
2018-09-06T05:45:25.341Z,961.09
2018-09-06T05:46:25.357Z,961.09
2018-09-06T05:47:25.375Z,961.08
2018-09-06T05:48:25.435Z,961.05
2018-09-06T05:49:25.339Z,961.07
2018-09-06T05:50:25.302Z,961.03
2018-09-06T05:51:25.307Z,960.98
2018-09-06T05:52:25.305Z,961.03
2018-09-06T05:53:25.327Z,961.03
2018-09-06T05:54:25.304Z,961.00
2018-09-06T05:55:25.309Z,961.03
2018-09-06T05:56:25.308Z,961.02
2018-09-06T05:57:25.310Z,961.02
2018-09-06T05:58:25.307Z,961.02
2018-09-06T05:59:25.350Z,961.02
2018-09-06T06:00:25.343Z,961.04
2018-09-06T06:01:25.315Z,961.05
2018-09-06T06:02:25.311Z,961.06
2018-09-06T06:03:25.335Z,961.06
2018-09-06T06:04:25.308Z,961.04
2018-09-06T06:05:25.362Z,961.05
2018-09-06T06:06:25.339Z,961.02
2018-09-06T06:07:25.305Z,961.00
2018-09-06T06:08:25.475Z,961.03
2018-09-06T06:09:25.310Z,961.03
2018-09-06T06:10:25.312Z,961.04
2018-09-06T06:11:25.309Z,961.06
2018-09-06T06:12:25.310Z,961.01
2018-09-06T06:13:25.320Z,961.03
2018-09-06T06:14:25.312Z,960.97
2018-09-06T06:15:25.311Z,961.01
2018-09-06T06:16:25.320Z,960.97
2018-09-06T06:17:25.382Z,961.00
2018-09-06T06:18:25.315Z,960.98
2018-09-06T06:19:25.322Z,960.98
2018-09-06T06:20:25.320Z,961.02
2018-09-06T06:21:25.372Z,961.02
2018-09-06T06:22:25.385Z,961.00
2018-09-06T06:23:25.319Z,961.01
2018-09-06T06:24:25.325Z,960.97
2018-09-06T06:25:25.351Z,960.96
2018-09-06T06:26:25.319Z,960.95
2018-09-06T06:27:25.331Z,960.94
2018-09-06T06:28:25.324Z,960.92
2018-09-06T06:29:25.324Z,960.94
2018-09-06T06:30:25.336Z,960.92
2018-09-06T06:31:25.328Z,960.95
2018-09-06T06:32:25.353Z,960.95
2018-09-06T06:33:25.327Z,960.97
2018-09-06T06:34:25.330Z,960.98
2018-09-06T06:35:25.352Z,961.00
2018-09-06T06:36:25.336Z,961.04
2018-09-06T06:37:25.336Z,961.01
2018-09-06T06:38:25.341Z,961.00
2018-09-06T06:39:25.338Z,961.01
2018-09-06T06:40:25.345Z,960.99
2018-09-06T06:41:25.346Z,960.94
2018-09-06T06:42:25.381Z,960.97
2018-09-06T06:43:25.348Z,960.94
2018-09-06T06:44:25.350Z,960.92
2018-09-06T06:45:25.355Z,960.96
2018-09-06T06:46:25.354Z,961.00
2018-09-06T06:47:25.359Z,960.97
2018-09-06T06:48:25.367Z,960.96
2018-09-06T06:49:25.369Z,960.96
2018-09-06T06:50:25.441Z,960.95
2018-09-06T06:51:25.373Z,960.97
2018-09-06T06:52:25.376Z,961.01
2018-09-06T06:53:25.383Z,961.04
2018-09-06T06:54:25.386Z,960.99
2018-09-06T06:55:25.390Z,960.96
2018-09-06T06:56:25.393Z,961.01
2018-09-06T06:57:25.412Z,961.00
2018-09-06T06:58:25.431Z,961.02
2018-09-06T06:59:25.413Z,961.03
2018-09-06T07:00:25.457Z,960.99
2018-09-06T07:01:25.440Z,960.94
2018-09-06T07:02:25.453Z,960.94
2018-09-06T07:03:25.428Z,961.01
2018-09-06T07:04:25.437Z,961.05
2018-09-06T07:05:25.438Z,961.00
2018-09-06T07:06:25.505Z,961.06
2018-09-06T07:07:25.452Z,961.04
2018-09-06T07:08:25.458Z,961.07
2018-09-06T07:09:25.462Z,961.07
2018-09-06T07:10:25.469Z,961.05
2018-09-06T07:11:25.478Z,961.06
2018-09-06T07:12:25.476Z,961.07
2018-09-06T07:13:25.478Z,961.09
2018-09-06T07:14:25.487Z,961.09
2018-09-06T07:15:25.500Z,961.07
2018-09-06T07:16:25.509Z,961.10
2018-09-06T07:17:25.581Z,961.04
2018-09-06T07:18:25.643Z,961.05
2018-09-06T07:19:25.540Z,961.03
2018-09-06T07:20:25.524Z,961.10
2018-09-06T07:21:25.532Z,961.00
2018-09-06T07:22:25.537Z,960.96
2018-09-06T07:23:25.540Z,960.94
2018-09-06T07:24:25.554Z,960.97
2018-09-06T07:25:25.556Z,960.94
2018-09-06T07:26:25.552Z,960.93
2018-09-06T07:27:25.570Z,960.93
2018-09-06T07:28:25.616Z,960.95
2018-09-06T07:29:25.576Z,960.92
2018-09-06T07:30:25.657Z,960.92
2018-09-06T07:31:25.607Z,960.93
2018-09-06T07:32:25.582Z,960.92
2018-09-06T07:33:25.593Z,960.97
2018-09-06T07:34:25.671Z,960.90
2018-09-06T07:35:25.617Z,960.93
2018-09-06T07:36:25.640Z,960.90
2018-09-06T07:37:25.638Z,961.17
2018-09-06T07:38:25.663Z,961.17
2018-09-06T07:39:25.648Z,961.24
2018-09-06T07:40:25.628Z,961.21
2018-09-06T07:41:25.663Z,961.23
2018-09-06T07:42:25.663Z,961.23
2018-09-06T07:43:27.584Z,961.23
2018-09-06T07:44:25.671Z,961.20
2018-09-06T07:45:25.657Z,961.21
2018-09-06T07:46:25.681Z,961.20
2018-09-06T07:47:25.783Z,961.24
2018-09-06T07:48:26.623Z,961.26
2018-09-06T07:49:25.707Z,961.27
2018-09-06T07:50:25.698Z,961.22
2018-09-06T07:51:25.776Z,961.22
2018-09-06T07:52:25.785Z,961.25
2018-09-06T07:53:25.776Z,961.24
2018-09-06T07:54:25.778Z,961.27
2018-09-06T07:55:25.798Z,961.32
2018-09-06T07:56:25.890Z,961.31
2018-09-06T07:57:25.753Z,961.29
2018-09-06T07:58:25.757Z,961.31
2018-09-06T07:59:25.764Z,961.28
2018-09-06T08:00:25.946Z,961.23
2018-09-06T08:01:25.872Z,961.22
2018-09-06T08:02:25.832Z,961.21
2018-09-06T08:03:25.966Z,961.22
2018-09-06T08:04:25.851Z,961.29
2018-09-06T08:05:27.673Z,961.32
2018-09-06T08:06:33.009Z,961.28
2018-09-06T08:08:19.285Z,961.24
2018-09-06T08:09:19.243Z,961.17
2018-09-06T08:11:15.379Z,961.20
2018-09-06T08:12:13.357Z,961.16
2018-09-06T08:13:15.245Z,961.23
2018-09-06T08:14:13.355Z,961.24
2018-09-06T08:15:13.483Z,961.22
2018-09-06T08:16:13.386Z,961.28
2018-09-06T08:17:13.521Z,961.42
2018-09-06T08:18:17.695Z,961.64
2018-09-06T08:19:16.061Z,961.74
2018-09-06T08:20:16.193Z,961.88
2018-09-06T08:23:24.401Z,961.85
2018-09-06T08:27:05.089Z,961.87
2018-09-06T08:27:57.997Z,961.89
2018-09-06T08:28:57.322Z,961.90
2018-09-06T08:31:40.846Z,961.87
2018-09-06T08:32:41.568Z,961.92
2018-09-06T08:33:40.674Z,961.91
2018-09-06T08:34:40.861Z,961.91
2018-09-06T08:35:42.787Z,961.87
2018-09-06T08:40:00.680Z,961.89
2018-09-06T08:44:48.006Z,961.89
2018-09-06T08:45:25.283Z,961.97
2018-09-06T09:00:53.837Z,961.27
2018-09-06T10:35:09.236Z,959.90
2018-09-06T10:41:42.020Z,959.77
2018-09-06T10:42:33.577Z,959.81
2018-09-06T10:43:30.400Z,959.79
2018-09-06T10:44:30.549Z,959.78
2018-09-06T10:45:30.360Z,959.79
2018-09-06T10:46:38.559Z,959.75
2018-09-06T10:48:24.668Z,959.79
2018-09-06T10:49:23.537Z,959.77
2018-09-06T10:51:17.526Z,959.78
2018-09-06T10:52:17.369Z,959.78
2018-09-06T10:54:12.826Z,959.77
2018-09-06T10:55:12.688Z,959.75
2018-09-06T10:56:12.564Z,959.72
2018-09-06T10:57:14.360Z,959.73
2018-09-06T10:58:13.026Z,959.76
2018-09-06T10:59:12.709Z,959.71
2018-09-06T11:00:12.674Z,959.67
2018-09-06T11:01:12.625Z,959.69
2018-09-06T11:02:14.274Z,959.71
2018-09-06T11:03:12.621Z,959.66
2018-09-06T11:04:20.579Z,959.67
2018-09-06T11:06:05.662Z,959.68
2018-09-06T11:07:05.697Z,959.73
2018-09-06T11:08:59.213Z,959.71
2018-09-06T11:09:59.168Z,959.74
2018-09-06T11:11:52.726Z,959.70
2018-09-06T11:12:52.536Z,959.68
2018-09-06T11:14:45.612Z,959.63
2018-09-06T11:15:45.438Z,959.62
2018-09-06T11:17:38.958Z,959.69
2018-09-06T11:18:39.858Z,959.61
2018-09-06T11:19:38.923Z,959.63
2018-09-06T11:20:38.892Z,959.65
2018-09-06T11:21:39.019Z,959.65
2018-09-06T11:22:51.325Z,959.66
2018-09-06T11:23:40.184Z,959.60
2018-09-06T11:24:39.209Z,959.68
2018-09-06T11:25:40.864Z,959.65
2018-09-06T11:26:38.919Z,959.67
2018-09-06T11:27:39.019Z,959.66
2018-09-06T11:28:38.889Z,959.68
2018-09-06T11:29:38.891Z,959.68
2018-09-06T11:30:38.898Z,959.66
2018-09-06T11:31:38.904Z,959.59
2018-09-06T11:32:38.998Z,959.66
2018-09-06T11:33:38.991Z,959.61
2018-09-06T11:34:38.983Z,959.57
2018-09-06T11:35:38.981Z,959.53
2018-09-06T11:36:39.067Z,959.56
2018-09-06T11:37:40.917Z,959.52
2018-09-06T11:38:40.899Z,959.56
2018-09-06T11:39:40.851Z,959.49
2018-09-06T11:40:39.012Z,959.46
2018-09-06T11:41:39.012Z,959.45
2018-09-06T11:42:39.069Z,959.44
2018-09-06T11:43:39.037Z,959.50
2018-09-06T11:44:40.849Z,959.50
2018-09-06T11:45:39.112Z,959.51
2018-09-06T11:46:39.902Z,959.48
2018-09-06T11:47:39.105Z,959.45
2018-09-06T11:48:39.087Z,959.47
2018-09-06T11:49:39.144Z,959.47
2018-09-06T11:50:39.150Z,959.47
2018-09-06T11:51:39.076Z,959.41
2018-09-06T11:52:39.084Z,959.44
2018-09-06T11:53:39.115Z,959.42
2018-09-06T11:54:39.112Z,959.44
2018-09-06T11:55:39.099Z,959.42
2018-09-06T11:56:42.793Z,959.37
2018-09-06T11:57:40.827Z,959.35
2018-09-06T11:58:40.332Z,959.33
2018-09-06T11:59:40.842Z,959.34
2018-09-06T12:00:48.460Z,959.34
2018-09-06T12:02:44.049Z,959.28
2018-09-06T12:03:35.325Z,959.32
2018-09-06T12:05:08.935Z,959.32
2018-09-06T12:06:29.581Z,959.30
2018-09-06T12:07:29.515Z,959.32
2018-09-06T12:08:33.131Z,959.28
2018-09-06T12:09:29.468Z,959.28
2018-09-06T12:10:29.481Z,959.28
2018-09-06T12:11:29.413Z,959.27
2018-09-06T12:12:29.415Z,959.27
2018-09-06T12:13:30.548Z,959.24
2018-09-06T12:14:29.444Z,959.20
2018-09-06T12:15:29.403Z,959.23
2018-09-06T12:16:29.421Z,959.20
2018-09-06T12:17:29.478Z,959.17
2018-09-06T12:18:29.423Z,959.17
2018-09-06T12:19:29.454Z,959.19
2018-09-06T12:20:29.551Z,959.18
2018-09-06T12:21:29.474Z,959.19
2018-09-06T12:22:29.452Z,959.16
2018-09-06T12:23:32.169Z,959.17
2018-09-06T12:24:36.749Z,959.17
2018-09-06T12:25:29.920Z,959.13
2018-09-06T12:26:29.570Z,959.12
2018-09-06T12:27:29.583Z,959.13
2018-09-06T12:28:29.886Z,959.12
2018-09-06T12:29:29.689Z,959.11
2018-09-06T12:30:29.524Z,959.12
2018-09-06T12:31:29.583Z,959.12
2018-09-06T12:32:29.662Z,959.06
2018-09-06T12:33:29.559Z,959.05
2018-09-06T12:34:29.541Z,959.06
2018-09-06T12:35:29.649Z,959.04
2018-09-06T12:36:29.560Z,959.01
2018-09-06T12:37:29.590Z,959.04
2018-09-06T12:38:29.568Z,959.04
2018-09-06T12:39:29.580Z,958.98
2018-09-06T12:40:29.584Z,958.98
2018-09-06T12:41:29.592Z,958.96
2018-09-06T12:42:29.692Z,958.95
2018-09-06T12:43:29.638Z,958.96
2018-09-06T12:44:29.617Z,958.94
2018-09-06T12:45:29.625Z,958.94
2018-09-06T12:46:29.633Z,958.96
2018-09-06T12:47:37.046Z,958.99
2018-09-06T12:49:23.892Z,958.97
2018-09-06T12:52:15.502Z,958.93
2018-09-06T12:53:06.535Z,958.91
2018-09-06T12:55:04.511Z,958.93
2018-09-06T12:56:04.142Z,958.89
2018-09-06T12:57:58.725Z,958.85
2018-09-06T12:58:58.876Z,958.85
2018-09-06T12:59:58.727Z,958.85
2018-09-06T13:00:58.741Z,958.83
2018-09-06T13:01:58.807Z,958.81
2018-09-06T13:02:58.699Z,958.79
2018-09-06T13:03:58.705Z,958.80
2018-09-06T13:05:05.945Z,958.75
2018-09-06T13:06:52.364Z,958.75
2018-09-06T13:07:52.697Z,958.80
2018-09-06T13:08:52.285Z,958.84
2018-09-06T13:09:52.189Z,958.78
2018-09-06T13:10:52.183Z,958.79
2018-09-06T13:11:52.161Z,958.75
2018-09-06T13:12:52.197Z,958.73
2018-09-06T13:13:52.179Z,958.69
2018-09-06T13:14:52.192Z,958.68
2018-09-06T13:15:52.265Z,958.70
2018-09-06T13:16:52.282Z,958.68
2018-09-06T13:17:52.204Z,958.62
2018-09-06T13:18:52.253Z,958.62
2018-09-06T13:19:52.236Z,958.58
2018-09-06T13:20:52.253Z,958.58
2018-09-06T13:21:52.245Z,958.58
2018-09-06T13:22:59.449Z,958.57
2018-09-06T13:24:45.868Z,958.52
2018-09-06T13:25:45.781Z,958.53
2018-09-06T13:27:39.860Z,958.52
2018-09-06T13:28:39.689Z,958.52
2018-09-06T13:30:32.732Z,958.51
2018-09-06T13:31:32.650Z,958.52
2018-09-06T13:32:32.508Z,958.55
2018-09-06T13:33:32.486Z,958.52
2018-09-06T13:34:32.506Z,958.51
2018-09-06T13:35:32.962Z,958.49
2018-09-06T13:36:32.468Z,958.45
2018-09-06T13:37:32.473Z,958.48
2018-09-06T13:38:32.481Z,958.48
2018-09-06T13:39:32.521Z,958.45
2018-09-06T13:40:32.546Z,958.43
2018-09-06T13:41:32.500Z,958.43
2018-09-06T13:42:32.516Z,958.44
2018-09-06T13:43:32.638Z,958.45
2018-09-06T13:44:32.549Z,958.42
2018-09-06T13:45:32.529Z,958.37
2018-09-06T13:46:32.535Z,958.36
2018-09-06T13:47:32.550Z,958.35
2018-09-06T13:48:32.546Z,958.29
2018-09-06T13:49:32.552Z,958.34
2018-09-06T13:50:32.580Z,958.32
2018-09-06T13:51:32.570Z,958.27
2018-09-06T13:52:32.575Z,958.27
2018-09-06T13:53:32.610Z,958.26
2018-09-06T13:54:32.584Z,958.21
2018-09-06T13:55:32.602Z,958.24
2018-09-06T13:56:32.714Z,958.21
2018-09-06T13:57:32.620Z,958.20
2018-09-06T13:58:32.691Z,958.18
2018-09-06T13:59:32.627Z,958.18
2018-09-06T14:00:32.633Z,958.16
2018-09-06T14:01:32.637Z,958.18
2018-09-06T14:02:32.765Z,958.18
2018-09-06T14:03:32.708Z,958.14
2018-09-06T14:04:32.731Z,958.14
2018-09-06T14:05:32.672Z,958.16
2018-09-06T14:06:32.721Z,958.14
2018-09-06T14:07:32.754Z,958.16
2018-09-06T14:08:32.752Z,958.11
2018-09-06T14:09:32.702Z,958.14
2018-09-06T14:10:32.757Z,958.11
2018-09-06T14:11:32.711Z,958.08
2018-09-06T14:12:32.710Z,958.06
2018-09-06T14:13:32.719Z,958.06
2018-09-06T14:14:32.722Z,958.04
2018-09-06T14:15:32.760Z,958.08
2018-09-06T14:16:32.850Z,958.04
2018-09-06T14:17:33.532Z,958.01
2018-09-06T14:18:32.754Z,958.04
2018-09-06T14:19:32.832Z,958.02
2018-09-06T14:20:32.838Z,957.98
2018-09-06T14:21:32.769Z,957.96
2018-09-06T14:22:32.781Z,957.92
2018-09-06T14:23:32.930Z,957.91
2018-09-06T14:24:33.677Z,957.90
2018-09-06T14:25:32.890Z,957.88
2018-09-06T14:26:32.871Z,957.88
2018-09-06T14:27:32.822Z,957.86
2018-09-06T14:28:32.822Z,957.83
2018-09-06T14:29:32.819Z,957.85
2018-09-06T14:30:32.826Z,957.82
2018-09-06T14:31:32.839Z,957.82
2018-09-06T14:32:32.868Z,957.83
2018-09-06T14:33:32.849Z,957.84
2018-09-06T14:34:32.855Z,957.84
2018-09-06T14:35:32.866Z,957.80
2018-09-06T14:36:32.869Z,957.80
2018-09-06T14:37:32.875Z,957.79
2018-09-06T14:38:32.916Z,957.76
2018-09-06T14:39:32.889Z,957.80
2018-09-06T14:40:32.898Z,957.77
2018-09-06T14:41:32.907Z,957.75
2018-09-06T14:42:32.932Z,957.77
2018-09-06T14:43:32.923Z,957.76
2018-09-06T14:44:32.950Z,957.72
2018-09-06T14:45:32.928Z,957.75
2018-09-06T14:46:32.933Z,957.75
2018-09-06T14:47:32.946Z,957.73
2018-09-06T14:48:32.948Z,957.68
2018-09-06T14:49:32.953Z,957.67
2018-09-06T14:50:32.983Z,957.68
2018-09-06T14:51:32.967Z,957.69
2018-09-06T14:52:33.081Z,957.68
2018-09-06T14:53:33.006Z,957.67